Time;durP1;ratioP1;P1;durP2;ratioP2;P2;SDS_P1;SDS_P2;PMS_P1;PMS_P2;Temp;Humidity;BMP_temperature;BMP_pressure;BME280_temperature;BME280_humidity;BME280_pressure;Samples;Min_cycle;Max_cycle;Signal;HPM_P1;HPM_P2
2022/07/14 00:00:37;;;;;;;;;;;14.40;99.90;;;;;;5113284;28;19955;-66
2022/07/14 00:03:02;;;;;;;;;;;14.40;99.90;;;;;;5124950;27;20484;-66
2022/07/14 00:05:28;;;;;;;;;;;14.30;99.90;;;;;;5115594;28;19931;-66
2022/07/14 00:07:54;;;;;;;;;;;14.30;99.90;;;;;;5114619;28;19924;-66
2022/07/14 00:10:19;;;;;;;;;;;14.30;99.90;;;;;;5113870;28;20030;-66
2022/07/14 00:12:45;;;;;;;;;;;14.20;99.90;;;;;;5115195;28;19923;-66
2022/07/14 00:15:10;;;;;;;;;;;14.30;99.90;;;;;;5095205;28;20006;-67
2022/07/14 00:17:36;;;;;;;;;;;14.20;99.90;;;;;;5096696;28;20018;-67
2022/07/14 00:20:02;;;;;;;;;;;14.20;99.90;;;;;;5115228;28;20010;-66
2022/07/14 00:22:28;;;;;;;;;;;14.10;99.90;;;;;;5096079;28;19924;-66
2022/07/14 00:24:54;;;;;;;;;;;14.10;99.90;;;;;;5113097;28;19924;-66
2022/07/14 00:27:19;;;;;;;;;;;14.00;99.90;;;;;;5096771;28;19953;-66
2022/07/14 00:29:45;;;;;;;;;;;14.00;99.90;;;;;;5086976;28;19940;-66
2022/07/14 00:32:11;;;;;;;;;;;13.90;99.90;;;;;;5095068;28;20010;-65
2022/07/14 00:34:36;;;;;;;;;;;14.10;99.90;;;;;;5108564;28;19931;-66
2022/07/14 00:37:02;;;;;;;;;;;13.80;99.90;;;;;;5114753;28;19928;-67
2022/07/14 00:39:54;;;;;;;;;;;13.70;99.90;;;;;;5109622;28;19924;-67
2022/07/14 00:42:13;;;;;;;;;;;13.70;99.90;;;;;;5095788;28;19964;-66
2022/07/14 00:44:38;;;;;;;;;;;13.60;99.90;;;;;;5110758;28;20340;-66
2022/07/14 00:47:04;;;;;;;;;;;13.60;99.90;;;;;;5096241;28;19923;-66
2022/07/14 00:49:37;;;;;;;;;;;13.50;99.90;;;;;;5095359;28;19928;-66
2022/07/14 00:52:02;;;;;;;;;;;13.50;99.90;;;;;;5093801;28;19975;-66
2022/07/14 00:54:29;;;;;;;;;;;13.50;99.90;;;;;;5075215;28;20012;-66
2022/07/14 00:56:54;;;;;;;;;;;13.50;99.90;;;;;;5114434;28;19968;-66
2022/07/14 00:59:20;;;;;;;;;;;13.50;99.90;;;;;;5113696;28;20426;-66
2022/07/14 01:01:45;;;;;;;;;;;13.40;99.90;;;;;;5092957;28;19930;-66
2022/07/14 01:04:11;;;;;;;;;;;13.30;99.90;;;;;;5108560;28;20288;-67
2022/07/14 01:06:36;;;;;;;;;;;13.50;99.90;;;;;;5093791;28;19924;-66
2022/07/14 01:09:02;;;;;;;;;;;13.30;99.90;;;;;;5112749;28;19934;-67
2022/07/14 01:11:28;;;;;;;;;;;13.20;99.90;;;;;;5096562;28;19931;-65
2022/07/14 01:13:53;;;;;;;;;;;13.20;99.90;;;;;;5113517;28;19923;-67
2022/07/14 01:16:19;;;;;;;;;;;13.10;99.90;;;;;;5112560;28;19923;-66
2022/07/14 01:18:44;;;;;;;;;;;13.20;99.90;;;;;;5109082;28;19924;-66
2022/07/14 01:21:10;;;;;;;;;;;13.10;99.90;;;;;;5092856;28;19924;-66
2022/07/14 01:23:35;;;;;;;;;;;13.00;99.90;;;;;;5111399;28;19923;-66
2022/07/14 01:26:01;;;;;;;;;;;13.00;99.90;;;;;;5108499;28;20014;-67
2022/07/14 01:28:26;;;;;;;;;;;13.00;99.90;;;;;;5100820;28;19930;-66
2022/07/14 01:30:52;;;;;;;;;;;12.90;99.90;;;;;;5094661;28;20002;-66
2022/07/14 01:33:17;;;;;;;;;;;12.90;99.90;;;;;;5089470;28;20395;-66
2022/07/14 01:35:42;;;;;;;;;;;12.80;99.90;;;;;;5097858;28;20026;-67
2022/07/14 01:38:08;;;;;;;;;;;12.80;99.90;;;;;;5060506;28;19924;-66
2022/07/14 01:40:33;;;;;;;;;;;12.80;99.90;;;;;;5093473;28;20091;-66
2022/07/14 01:42:59;;;;;;;;;;;12.70;99.90;;;;;;5093506;28;20545;-65
2022/07/14 01:45:24;;;;;;;;;;;12.70;99.90;;;;;;5110671;28;19924;-67
2022/07/14 01:47:50;;;;;;;;;;;12.70;99.90;;;;;;5094568;28;19924;-66
2022/07/14 01:50:15;;;;;;;;;;;12.70;99.90;;;;;;5113714;28;19969;-66
2022/07/14 01:52:41;;;;;;;;;;;12.60;99.90;;;;;;5111559;28;20344;-66
2022/07/14 01:55:06;;;;;;;;;;;12.60;99.90;;;;;;5113318;28;19923;-66
2022/07/14 01:57:32;;;;;;;;;;;12.50;99.90;;;;;;5109767;28;20014;-66
2022/07/14 01:59:57;;;;;;;;;;;12.60;99.90;;;;;;5110092;28;19966;-66
2022/07/14 02:02:23;;;;;;;;;;;12.50;99.90;;;;;;5108020;28;19930;-67
2022/07/14 02:04:48;;;;;;;;;;;12.40;99.90;;;;;;5107601;28;19932;-66
2022/07/14 02:07:14;;;;;;;;;;;12.40;99.90;;;;;;5097298;28;20035;-67
2022/07/14 02:12:24;;;;;;;;;;;12.30;99.90;;;;;;5111946;28;19928;-66
2022/07/14 02:14:49;;;;;;;;;;;12.30;99.90;;;;;;5113089;28;19928;-66
2022/07/14 02:17:15;;;;;;;;;;;12.20;99.90;;;;;;5111551;28;19924;-65
2022/07/14 02:19:40;;;;;;;;;;;12.40;99.90;;;;;;5113636;28;19924;-66
2022/07/14 02:22:06;;;;;;;;;;;12.10;99.90;;;;;;5093472;28;19962;-65
2022/07/14 02:24:31;;;;;;;;;;;12.10;99.90;;;;;;5094126;28;19935;-65
2022/07/14 02:26:57;;;;;;;;;;;12.10;99.90;;;;;;5114423;28;19930;-66
2022/07/14 02:29:23;;;;;;;;;;;12.10;99.90;;;;;;5117315;28;19931;-65
2022/07/14 02:31:48;;;;;;;;;;;12.00;99.90;;;;;;5114407;28;20811;-66
2022/07/14 02:34:15;;;;;;;;;;;12.00;99.90;;;;;;5117282;28;20374;-66
2022/07/14 02:36:41;;;;;;;;;;;11.90;99.90;;;;;;5102063;28;20019;-67
2022/07/14 02:39:06;;;;;;;;;;;11.90;99.90;;;;;;5111423;28;20010;-66
2022/07/14 02:41:32;;;;;;;;;;;11.90;99.90;;;;;;5117011;28;19969;-67
2022/07/14 02:43:57;;;;;;;;;;;11.80;99.90;;;;;;5110653;28;20275;-66
2022/07/14 02:46:23;;;;;;;;;;;11.80;99.90;;;;;;5115965;28;19930;-66
2022/07/14 02:48:48;;;;;;;;;;;11.80;99.90;;;;;;5116329;28;19974;-65
2022/07/14 02:51:15;;;;;;;;;;;11.80;99.90;;;;;;5086620;28;19927;-66
2022/07/14 02:53:41;;;;;;;;;;;11.80;99.90;;;;;;5096407;28;19928;-65
2022/07/14 02:56:06;;;;;;;;;;;11.70;99.90;;;;;;5096341;28;19924;-66
2022/07/14 02:58:32;;;;;;;;;;;11.70;99.90;;;;;;5104466;28;20311;-66
2022/07/14 03:00:58;;;;;;;;;;;11.70;99.90;;;;;;5098603;28;19931;-65
2022/07/14 03:03:23;;;;;;;;;;;11.60;99.90;;;;;;5100666;28;19924;-65
2022/07/14 03:05:49;;;;;;;;;;;11.60;99.90;;;;;;5086543;28;19934;-65
2022/07/14 03:08:15;;;;;;;;;;;11.60;99.90;;;;;;5096011;28;19931;-65
2022/07/14 03:10:41;;;;;;;;;;;11.60;99.90;;;;;;5078486;28;20373;-66
2022/07/14 03:13:07;;;;;;;;;;;11.50;99.90;;;;;;5078089;28;19924;-66
2022/07/14 03:15:33;;;;;;;;;;;11.50;99.90;;;;;;5098818;28;19924;-66
2022/07/14 03:17:58;;;;;;;;;;;11.60;99.90;;;;;;5115910;28;19930;-66
2022/07/14 03:20:24;;;;;;;;;;;11.50;99.90;;;;;;5116461;28;20352;-67
2022/07/14 03:22:49;;;;;;;;;;;11.50;99.90;;;;;;5110099;28;20400;-66
2022/07/14 03:25:15;;;;;;;;;;;11.50;99.90;;;;;;5111747;28;19947;-66
2022/07/14 03:27:41;;;;;;;;;;;11.50;99.90;;;;;;5095557;28;19979;-65
2022/07/14 03:30:07;;;;;;;;;;;11.50;99.90;;;;;;5085543;28;19976;-66
2022/07/14 03:32:57;;;;;;;;;;;11.50;99.90;;;;;;5115588;28;20331;-67
2022/07/14 03:35:39;;;;;;;;;;;11.40;99.90;;;;;;5097589;28;20441;-66
2022/07/14 03:38:05;;;;;;;;;;;11.50;99.90;;;;;;5080579;28;20431;-66
2022/07/14 03:40:33;;;;;;;;;;;11.50;99.90;;;;;;5115651;28;19919;-67
2022/07/14 03:43:00;;;;;;;;;;;11.50;99.90;;;;;;5109357;28;19959;-66
2022/07/14 03:45:26;;;;;;;;;;;11.40;99.90;;;;;;5095525;28;19932;-66
2022/07/14 03:47:51;;;;;;;;;;;11.40;99.90;;;;;;5112662;28;20395;-66
2022/07/14 03:50:23;;;;;;;;;;;11.50;99.90;;;;;;5115708;28;20007;-66
2022/07/14 03:52:48;;;;;;;;;;;11.50;99.90;;;;;;5115351;28;19927;-66
2022/07/14 04:02:39;;;;;;;;;;;11.40;99.90;;;;;;5114742;28;19964;-66
2022/07/14 04:05:05;;;;;;;;;;;11.50;99.90;;;;;;5115206;28;19924;-65
2022/07/14 04:07:30;;;;;;;;;;;11.50;99.90;;;;;;5115247;28;19927;-64
2022/07/14 04:09:56;;;;;;;;;;;11.50;99.90;;;;;;5110463;28;19936;-64
2022/07/14 04:12:21;;;;;;;;;;;11.50;99.90;;;;;;5114174;28;19924;-65
2022/07/14 04:14:47;;;;;;;;;;;11.70;99.90;;;;;;5101471;28;19970;-64
2022/07/14 04:17:12;;;;;;;;;;;11.60;99.90;;;;;;5112052;27;19923;-65
2022/07/14 04:19:38;;;;;;;;;;;11.60;99.90;;;;;;5115180;28;19933;-65
2022/07/14 04:22:04;;;;;;;;;;;11.70;99.90;;;;;;5115380;28;19931;-66
2022/07/14 04:24:29;;;;;;;;;;;11.70;99.90;;;;;;5094182;28;19935;-64
2022/07/14 04:26:55;;;;;;;;;;;11.70;99.90;;;;;;5092230;28;19924;-65
2022/07/14 04:29:20;;;;;;;;;;;11.70;99.90;;;;;;5111921;28;20019;-65
2022/07/14 04:31:46;;;;;;;;;;;11.60;99.90;;;;;;5095850;28;19924;-65
2022/07/14 04:34:11;;;;;;;;;;;11.70;99.90;;;;;;5114769;28;19928;-66
2022/07/14 04:36:37;;;;;;;;;;;11.70;99.90;;;;;;5113684;28;19968;-65
2022/07/14 04:39:04;;;;;;;;;;;11.80;99.90;;;;;;5109475;28;19944;-66
2022/07/14 04:41:30;;;;;;;;;;;11.90;99.90;;;;;;5110250;28;19927;-66
2022/07/14 04:43:55;;;;;;;;;;;11.90;99.90;;;;;;5101976;28;20307;-66
2022/07/14 04:46:21;;;;;;;;;;;11.90;99.90;;;;;;5094053;28;19963;-65
2022/07/14 04:54:15;;;;;;;;;;;12.00;99.90;;;;;;5130929;27;19924;-65
2022/07/14 04:56:40;;;;;;;;;;;12.10;99.90;;;;;;5114557;28;20388;-66
2022/07/14 04:59:06;;;;;;;;;;;12.10;99.90;;;;;;5077772;28;19924;-66
2022/07/14 05:01:32;;;;;;;;;;;12.20;99.90;;;;;;5090892;28;19924;-66
2022/07/14 05:03:57;;;;;;;;;;;12.20;99.90;;;;;;5125237;27;20272;-66
2022/07/14 05:06:23;;;;;;;;;;;12.30;99.90;;;;;;5114233;28;20030;-66
2022/07/14 05:08:49;;;;;;;;;;;12.40;99.90;;;;;;5087121;28;19966;-66
2022/07/14 05:11:14;;;;;;;;;;;12.50;99.90;;;;;;5105185;28;19963;-66
2022/07/14 05:13:40;;;;;;;;;;;12.60;99.90;;;;;;5112954;28;20028;-65
2022/07/14 05:16:05;;;;;;;;;;;12.70;99.90;;;;;;5113185;28;20055;-66
2022/07/14 05:18:31;;;;;;;;;;;12.80;99.90;;;;;;5113745;28;20441;-66
2022/07/14 05:20:56;;;;;;;;;;;13.00;99.90;;;;;;5113755;28;19924;-65
2022/07/14 05:23:23;;;;;;;;;;;13.10;99.90;;;;;;5112835;28;19977;-65
2022/07/14 05:25:48;;;;;;;;;;;13.30;99.90;;;;;;5106361;28;20398;-66
2022/07/14 05:28:14;;;;;;;;;;;13.50;99.90;;;;;;5098922;28;20010;-65
2022/07/14 05:30:39;;;;;;;;;;;13.60;99.90;;;;;;5093772;28;20004;-66
2022/07/14 05:33:05;;;;;;;;;;;13.80;99.90;;;;;;5087061;28;19971;-64
2022/07/14 05:35:30;;;;;;;;;;;14.00;99.90;;;;;;5114040;28;19935;-66
2022/07/14 05:37:56;;;;;;;;;;;14.20;99.90;;;;;;5097001;28;20014;-65
2022/07/14 05:40:21;;;;;;;;;;;14.30;99.90;;;;;;5085424;28;19932;-66
2022/07/14 05:42:47;;;;;;;;;;;15.00;99.90;;;;;;5094958;28;19936;-66
2022/07/14 05:45:12;;;;;;;;;;;16.10;99.90;;;;;;5064128;28;19925;-65
2022/07/14 05:47:41;;;;;;;;;;;17.20;99.90;;;;;;5056545;28;20019;-66
2022/07/14 05:50:07;;;;;;;;;;;18.20;99.90;;;;;;5062974;28;19947;-67
2022/07/14 05:52:33;;;;;;;;;;;19.00;99.90;;;;;;5056690;28;20377;-66
2022/07/14 05:54:59;;;;;;;;;;;19.70;99.90;;;;;;5059805;28;19924;-66
2022/07/14 05:57:24;;;;;;;;;;;20.20;99.90;;;;;;5066413;28;19924;-65
2022/07/14 05:59:50;;;;;;;;;;;20.60;99.90;;;;;;5065867;28;20266;-66
2022/07/14 06:02:16;;;;;;;;;;;20.80;99.90;;;;;;5060871;28;20011;-67
2022/07/14 06:04:41;;;;;;;;;;;21.10;99.90;;;;;;5095020;28;19970;-65
2022/07/14 06:07:08;;;;;;;;;;;21.50;99.90;;;;;;5063157;28;19925;-66
2022/07/14 06:09:37;;;;;;;;;;;21.70;99.90;;;;;;5085788;28;20015;-65
2022/07/14 06:12:05;;;;;;;;;;;21.90;99.90;;;;;;5085772;28;20023;-66
2022/07/14 06:14:31;;;;;;;;;;;22.10;99.90;;;;;;5077356;28;19929;-67
2022/07/14 06:16:56;;;;;;;;;;;22.20;99.90;;;;;;5074630;28;19931;-67
2022/07/14 06:19:22;;;;;;;;;;;22.50;99.90;;;;;;5081478;28;20226;-66
2022/07/14 06:21:47;;;;;;;;;;;22.70;99.90;;;;;;5077139;28;20351;-66
2022/07/14 06:24:13;;;;;;;;;;;22.90;99.90;;;;;;5109545;28;19933;-67
2022/07/14 06:26:38;;;;;;;;;;;23.00;99.90;;;;;;5077567;28;19944;-66
2022/07/14 06:29:04;;;;;;;;;;;22.90;99.90;;;;;;5067447;28;19955;-66
2022/07/14 06:31:33;;;;;;;;;;;22.40;99.90;;;;;;5068448;28;19937;-66
2022/07/14 06:33:59;;;;;;;;;;;22.10;99.90;;;;;;5078764;28;19936;-66
2022/07/14 06:36:25;;;;;;;;;;;22.10;99.90;;;;;;5096622;28;20069;-66
2022/07/14 06:38:51;;;;;;;;;;;22.10;99.90;;;;;;5081654;28;19924;-67
2022/07/14 06:41:20;;;;;;;;;;;22.20;99.90;;;;;;5095689;28;19924;-67
2022/07/14 06:43:46;;;;;;;;;;;21.60;99.90;;;;;;5089254;28;19924;-66
2022/07/14 06:46:15;;;;;;;;;;;20.90;99.90;;;;;;5096398;28;19935;-67
2022/07/14 06:48:41;;;;;;;;;;;;;;;;;;5116491;28;19931;-65
2022/07/14 06:51:07;;;;;;;;;;;19.90;99.90;;;;;;5103510;28;19924;-67
2022/07/14 06:53:33;;;;;;;;;;;19.70;99.90;;;;;;5099846;28;19979;-66
2022/07/14 06:55:58;;;;;;;;;;;19.50;99.90;;;;;;5116996;28;19930;-68
2022/07/14 06:58:24;;;;;;;;;;;19.40;99.90;;;;;;5115014;28;19924;-67
2022/07/14 07:00:49;;;;;;;;;;;19.30;99.90;;;;;;5117551;28;19927;-66
2022/07/14 07:03:15;;;;;;;;;;;19.30;99.90;;;;;;5095998;28;19924;-67
2022/07/14 07:08:25;;;;;;;;;;;19.50;99.90;;;;;;5116492;28;19924;-67
2022/07/14 07:10:51;;;;;;;;;;;19.40;99.90;;;;;;5110177;28;19930;-67
2022/07/14 07:13:16;;;;;;;;;;;19.20;99.90;;;;;;5084192;28;20007;-67
2022/07/14 07:15:42;;;;;;;;;;;18.90;99.90;;;;;;5116777;28;19967;-66
2022/07/14 07:18:07;;;;;;;;;;;18.80;99.90;;;;;;5116071;28;20466;-66
2022/07/14 07:20:34;;;;;;;;;;;18.80;99.90;;;;;;5108628;28;20414;-67
2022/07/14 07:23:00;;;;;;;;;;;18.80;99.90;;;;;;5098024;28;19923;-66
2022/07/14 07:25:26;;;;;;;;;;;18.90;99.90;;;;;;5097362;28;19935;-66
2022/07/14 07:27:52;;;;;;;;;;;19.00;99.90;;;;;;5093718;28;19931;-66
2022/07/14 07:30:17;;;;;;;;;;;19.10;99.90;;;;;;5095992;28;19924;-67
2022/07/14 07:32:43;;;;;;;;;;;19.10;99.90;;;;;;5101079;28;20300;-67
2022/07/14 07:35:08;;;;;;;;;;;19.50;99.90;;;;;;5111609;28;19924;-66
2022/07/14 07:37:34;;;;;;;;;;;19.50;99.90;;;;;;5106590;28;19924;-68
2022/07/14 07:40:00;;;;;;;;;;;19.50;99.90;;;;;;5116299;28;19924;-66
2022/07/14 07:42:25;;;;;;;;;;;19.60;99.90;;;;;;5110977;28;19935;-66
2022/07/14 07:44:51;;;;;;;;;;;19.80;99.90;;;;;;5097827;28;20027;-67
2022/07/14 07:47:17;;;;;;;;;;;19.60;99.90;;;;;;5095693;28;19924;-67
2022/07/14 07:49:42;;;;;;;;;;;19.60;99.90;;;;;;5110419;28;19924;-67
2022/07/14 07:52:08;;;;;;;;;;;19.30;99.90;;;;;;5097472;28;19924;-66
2022/07/14 07:54:33;;;;;;;;;;;19.40;99.90;;;;;;5077631;28;19924;-68
2022/07/14 07:56:59;;;;;;;;;;;19.60;99.90;;;;;;5095342;28;19974;-67
2022/07/14 07:59:25;;;;;;;;;;;20.10;99.90;;;;;;5095407;28;20309;-67
2022/07/14 08:01:51;;;;;;;;;;;20.30;99.90;;;;;;5083297;28;19977;-67
2022/07/14 08:04:16;;;;;;;;;;;20.40;99.90;;;;;;5115344;28;20283;-67
2022/07/14 08:06:42;;;;;;;;;;;20.70;99.90;;;;;;5091300;28;19934;-68
2022/07/14 08:09:11;;;;;;;;;;;20.90;99.90;;;;;;5097433;28;20356;-67
2022/07/14 08:11:40;;;;;;;;;;;21.00;99.90;;;;;;5111976;28;19928;-67
2022/07/14 08:14:06;;;;;;;;;;;21.10;99.90;;;;;;5094854;28;19930;-68
2022/07/14 08:16:31;;;;;;;;;;;20.80;99.90;;;;;;5096460;28;19932;-67
2022/07/14 08:18:57;;;;;;;;;;;20.70;99.90;;;;;;5072929;28;19928;-67
2022/07/14 08:21:23;;;;;;;;;;;20.80;99.90;;;;;;5070023;28;20008;-68
2022/07/14 08:23:50;;;;;;;;;;;20.40;99.90;;;;;;5095897;27;20003;-68
2022/07/14 08:26:15;;;;;;;;;;;20.20;99.90;;;;;;5069051;28;20015;-67
2022/07/14 08:28:41;;;;;;;;;;;19.70;99.90;;;;;;5098117;27;20382;-68
2022/07/14 08:31:12;;;;;;;;;;;19.50;99.90;;;;;;5074874;28;20003;-67
2022/07/14 08:33:38;;;;;;;;;;;19.60;99.90;;;;;;5106649;27;19924;-67
2022/07/14 08:36:03;;;;;;;;;;;19.90;99.90;;;;;;5093653;28;20709;-68
2022/07/14 08:38:29;;;;;;;;;;;20.30;99.90;;;;;;5113089;28;19939;-67
2022/07/14 08:40:54;;;;;;;;;;;20.40;99.90;;;;;;5094268;28;20425;-67
2022/07/14 08:43:20;;;;;;;;;;;20.40;99.90;;;;;;5089004;28;20051;-66
2022/07/14 08:49:19;;;;;;;;;;;20.20;99.90;;;;;;5073325;28;19926;-67
2022/07/14 08:52:07;;;;;;;;;;;20.50;99.90;;;;;;5078338;28;19920;-67
2022/07/14 08:54:36;;;;;;;;;;;20.60;98.80;;;;;;5077716;28;19924;-67
2022/07/14 08:57:02;;;;;;;;;;;21.00;99.80;;;;;;5092692;28;19927;-70
2022/07/14 08:59:30;;;;;;;;;;;21.30;99.90;;;;;;5092251;28;19927;-69
2022/07/14 09:01:59;;;;;;;;;;;21.50;99.90;;;;;;5093479;28;19927;-69
2022/07/14 09:04:25;;;;;;;;;;;21.40;99.90;;;;;;5088644;28;19924;-69
2022/07/14 09:06:52;;;;;;;;;;;21.50;99.90;;;;;;5091572;28;20368;-68
2022/07/14 09:09:22;;;;;;;;;;;21.50;99.90;;;;;;5092247;28;19924;-66
2022/07/14 09:11:48;;;;;;;;;;;21.40;99.90;;;;;;5092787;28;19962;-69
2022/07/14 09:14:14;;;;;;;;;;;21.40;99.90;;;;;;5063673;28;20383;-69
2022/07/14 09:16:39;;;;;;;;;;;21.30;99.90;;;;;;5092277;28;19928;-67
2022/07/14 09:19:05;;;;;;;;;;;21.40;99.90;;;;;;5092202;28;20340;-68
2022/07/14 09:21:30;;;;;;;;;;;21.50;99.90;;;;;;5084785;28;19940;-67
2022/07/14 09:23:58;;;;;;;;;;;21.50;91.20;;;;;;5073369;28;19939;-68
2022/07/14 09:26:23;;;;;;;;;;;21.40;94.30;;;;;;5091324;28;19924;-68
2022/07/14 09:28:50;;;;;;;;;;;21.50;96.00;;;;;;5090569;28;20040;-67
2022/07/14 09:31:22;;;;;;;;;;;21.70;93.40;;;;;;5092152;28;19976;-66
2022/07/14 09:33:48;;;;;;;;;;;21.80;94.30;;;;;;5089747;28;19975;-69
2022/07/14 09:36:22;;;;;;;;;;;21.80;98.10;;;;;;5076300;28;20015;-69
2022/07/14 09:38:48;;;;;;;;;;;21.80;94.40;;;;;;5090706;28;20381;-68
2022/07/14 09:41:14;;;;;;;;;;;21.80;99.90;;;;;;5090739;28;19926;-67
2022/07/14 09:43:39;;;;;;;;;;;21.70;97.00;;;;;;5086634;28;19954;-65
2022/07/14 09:46:07;;;;;;;;;;;21.50;98.60;;;;;;5105904;28;21185;-65
2022/07/14 09:48:32;;;;;;;;;;;21.50;95.60;;;;;;5063191;28;19924;-66
2022/07/14 09:51:00;;;;;;;;;;;21.40;99.00;;;;;;5127605;28;20362;-67
2022/07/14 09:53:29;;;;;;;;;;;21.50;97.20;;;;;;5093688;28;19951;-65
2022/07/14 09:56:05;;;;;;;;;;;21.60;99.60;;;;;;5088954;28;19928;-65
2022/07/14 09:58:31;;;;;;;;;;;21.60;97.20;;;;;;5090928;28;19928;-64
2022/07/14 10:00:58;;;;;;;;;;;21.60;90.90;;;;;;5129648;28;19924;-67
2022/07/14 10:03:24;;;;;;;;;;;21.50;95.30;;;;;;5098247;28;19924;-65
2022/07/14 10:05:51;;;;;;;;;;;21.80;99.90;;;;;;5113057;28;19950;-67
2022/07/14 10:08:19;;;;;;;;;;;21.70;97.60;;;;;;5109885;28;19923;-66
2022/07/14 10:10:44;;;;;;;;;;;21.70;97.90;;;;;;5071279;28;20035;-65
2022/07/14 10:13:11;;;;;;;;;;;21.80;99.90;;;;;;5080027;28;20523;-67
2022/07/14 10:15:37;;;;;;;;;;;21.70;99.90;;;;;;5093234;28;19937;-66
2022/07/14 10:18:05;;;;;;;;;;;21.70;98.90;;;;;;5097597;28;19924;-67
2022/07/14 10:20:32;;;;;;;;;;;21.60;98.70;;;;;;5098831;28;19976;-67
2022/07/14 10:23:00;;;;;;;;;;;21.30;95.60;;;;;;5088941;28;20375;-65
2022/07/14 10:25:25;;;;;;;;;;;21.20;97.80;;;;;;5093676;28;19928;-66
2022/07/14 10:27:51;;;;;;;;;;;21.20;99.90;;;;;;5095663;28;20425;-66
2022/07/14 10:30:18;;;;;;;;;;;21.20;99.10;;;;;;5092689;28;20408;-68
2022/07/14 10:32:46;;;;;;;;;;;21.10;99.90;;;;;;5104160;28;19972;-66
2022/07/14 10:35:20;;;;;;;;;;;21.30;99.90;;;;;;5108440;28;19960;-67
2022/07/14 10:38:04;;;;;;;;;;;21.50;99.90;;;;;;5105544;28;19924;-67
2022/07/14 10:40:39;;;;;;;;;;;21.50;98.30;;;;;;5092940;28;19931;-67
2022/07/14 10:43:12;;;;;;;;;;;21.60;99.40;;;;;;5103486;28;20290;-66
2022/07/14 10:46:07;;;;;;;;;;;21.70;99.90;;;;;;5113170;28;20394;-67
2022/07/14 10:48:34;;;;;;;;;;;21.80;99.90;;;;;;5055726;28;19968;-66
2022/07/14 10:51:15;;;;;;;;;;;21.90;98.60;;;;;;5112368;28;19939;-67
2022/07/14 10:53:59;;;;;;;;;;;22.00;98.90;;;;;;5086736;28;20388;-65
2022/07/14 10:56:25;;;;;;;;;;;22.10;95.70;;;;;;5074073;28;19928;-68
2022/07/14 10:59:10;;;;;;;;;;;21.90;84.90;;;;;;5090986;28;19934;-67
2022/07/14 11:01:36;;;;;;;;;;;21.90;97.60;;;;;;5074565;28;19956;-68
2022/07/14 11:04:01;;;;;;;;;;;21.90;95.00;;;;;;5095160;28;19978;-67
2022/07/14 11:06:27;;;;;;;;;;;21.90;95.30;;;;;;5077529;28;19971;-68
2022/07/14 11:09:11;;;;;;;;;;;21.80;91.00;;;;;;5077317;28;19931;-68
2022/07/14 11:11:37;;;;;;;;;;;21.70;94.10;;;;;;5110676;28;19930;-67
2022/07/14 11:14:02;;;;;;;;;;;21.60;99.60;;;;;;5077657;28;19932;-67
2022/07/14 11:16:52;;;;;;;;;;;21.60;99.90;;;;;;5095376;28;19928;-67
2022/07/14 11:19:27;;;;;;;;;;;21.70;98.80;;;;;;5096361;28;20284;-67
2022/07/14 11:22:08;;;;;;;;;;;21.80;99.90;;;;;;5076467;28;19978;-68
2022/07/14 11:24:33;;;;;;;;;;;21.80;99.90;;;;;;5095595;28;19927;-68
2022/07/14 11:27:19;;;;;;;;;;;21.70;99.40;;;;;;5111691;28;19938;-68
2022/07/14 11:29:45;;;;;;;;;;;21.70;99.90;;;;;;5077526;28;19931;-68
2022/07/14 11:32:27;;;;;;;;;;;21.80;99.90;;;;;;5110918;28;19928;-66
2022/07/14 11:37:54;;;;;;;;;;;21.90;96.40;;;;;;5094884;28;19928;-69
2022/07/14 11:40:39;;;;;;;;;;;21.90;98.00;;;;;;5111637;28;19928;-69
2022/07/14 11:43:23;;;;;;;;;;;21.90;97.10;;;;;;5077219;28;19975;-67
2022/07/14 11:45:52;;;;;;;;;;;21.90;96.10;;;;;;5076556;28;19924;-67
2022/07/14 11:48:18;;;;;;;;;;;21.80;94.20;;;;;;5076911;28;19927;-68
2022/07/14 11:50:44;;;;;;;;;;;21.70;96.80;;;;;;5095370;28;19924;-67
2022/07/14 11:53:10;;;;;;;;;;;21.60;88.10;;;;;;5094952;28;19975;-68
2022/07/14 11:55:39;;;;;;;;;;;21.60;92.90;;;;;;5095402;28;19946;-68
2022/07/14 11:58:05;;;;;;;;;;;21.70;97.90;;;;;;5060173;28;19924;-67
2022/07/14 12:00:31;;;;;;;;;;;21.80;99.90;;;;;;5093780;28;20030;-68
2022/07/14 12:02:58;;;;;;;;;;;21.80;94.60;;;;;;5093530;28;19924;-68
2022/07/14 12:05:27;;;;;;;;;;;21.60;81.80;;;;;;5076863;28;19958;-67
2022/07/14 12:07:55;;;;;;;;;;;21.60;92.90;;;;;;5094382;28;20388;-66
2022/07/14 12:10:35;;;;;;;;;;;21.60;93.60;;;;;;5094823;28;20372;-69
2022/07/14 12:13:06;;;;;;;;;;;21.80;98.60;;;;;;5093314;28;19973;-68
2022/07/14 12:19:27;;;;;;;;;;;21.80;81.60;;;;;;5094681;28;19919;-69
2022/07/14 12:25:17;;;;;;;;;;;21.60;90.00;;;;;;5015248;28;19968;-68
2022/07/14 12:27:49;;;;;;;;;;;21.70;76.70;;;;;;5093393;28;20508;-70
2022/07/14 12:30:15;;;;;;;;;;;21.70;90.00;;;;;;5066995;28;19919;-66
2022/07/14 12:32:41;;;;;;;;;;;21.70;85.30;;;;;;5095219;28;19927;-66
2022/07/14 12:35:09;;;;;;;;;;;21.60;90.00;;;;;;5058469;28;19985;-68
2022/07/14 12:37:36;;;;;;;;;;;21.60;93.60;;;;;;5076108;28;19919;-68
2022/07/14 12:40:08;;;;;;;;;;;21.60;92.30;;;;;;5075532;28;19920;-69
2022/07/14 12:42:37;;;;;;;;;;;21.60;94.60;;;;;;5076126;28;19920;-65
2022/07/14 12:45:07;;;;;;;;;;;21.80;99.10;;;;;;5085212;28;19928;-67
2022/07/14 12:47:48;;;;;;;;;;;21.80;99.20;;;;;;5050799;28;19936;-67
2022/07/14 12:50:21;;;;;;;;;;;21.80;99.90;;;;;;5084488;28;19931;-67
2022/07/14 12:52:52;;;;;;;;;;;21.70;96.80;;;;;;5051907;28;20411;-68
2022/07/14 12:55:50;;;;;;;;;;;21.60;96.30;;;;;;5054687;28;20305;-66
2022/07/14 12:58:15;;;;;;;;;;;21.50;96.60;;;;;;5059448;28;19920;-67
2022/07/14 13:00:45;;;;;;;;;;;21.60;93.70;;;;;;5072130;28;19943;-68
2022/07/14 13:03:13;;;;;;;;;;;21.40;93.20;;;;;;5104066;28;19928;-67
2022/07/14 13:05:46;;;;;;;;;;;21.50;99.10;;;;;;5069452;28;19932;-66
2022/07/14 13:08:31;;;;;;;;;;;21.60;97.30;;;;;;5069725;28;19928;-65
2022/07/14 13:10:57;;;;;;;;;;;21.70;93.40;;;;;;5102769;28;19927;-68
2022/07/14 13:13:30;;;;;;;;;;;21.60;97.70;;;;;;5054084;28;19929;-67
2022/07/14 13:16:15;;;;;;;;;;;21.60;95.50;;;;;;5069143;28;19920;-65
2022/07/14 13:19:00;;;;;;;;;;;21.60;91.40;;;;;;5052394;28;19938;-67
2022/07/14 13:21:44;;;;;;;;;;;21.60;91.00;;;;;;5086329;28;20007;-68
2022/07/14 13:24:16;;;;;;;;;;;21.90;94.90;;;;;;5102605;28;19924;-68
2022/07/14 13:26:41;;;;;;;;;;;21.80;80.90;;;;;;5086868;28;20015;-67
2022/07/14 13:29:07;;;;;;;;;;;22.00;92.50;;;;;;5071011;28;20040;-68
2022/07/14 13:31:33;;;;;;;;;;;22.10;91.10;;;;;;5069353;28;19928;-66
2022/07/14 13:34:00;;;;;;;;;;;22.10;93.60;;;;;;5070280;28;19924;-66
2022/07/14 13:36:26;;;;;;;;;;;22.20;90.00;;;;;;5070193;28;20364;-67
2022/07/14 13:38:51;;;;;;;;;;;22.00;90.60;;;;;;5069205;28;19931;-66
2022/07/14 13:41:17;;;;;;;;;;;21.70;77.60;;;;;;5100792;28;19928;-66
2022/07/14 13:43:43;;;;;;;;;;;21.80;80.50;;;;;;5103398;27;19932;-66
2022/07/14 13:46:10;;;;;;;;;;;21.80;91.90;;;;;;5083603;28;20027;-67
2022/07/14 13:48:36;;;;;;;;;;;21.70;85.80;;;;;;5072037;28;19946;-64
2022/07/14 13:53:47;;;;;;;;;;;21.70;86.50;;;;;;5087806;28;20032;-65
2022/07/14 13:56:13;;;;;;;;;;;21.60;91.10;;;;;;5090360;28;19935;-67
2022/07/14 13:58:38;;;;;;;;;;;21.50;91.40;;;;;;5090366;28;19977;-65
2022/07/14 14:01:04;;;;;;;;;;;21.50;91.70;;;;;;5089947;28;19924;-68
2022/07/14 14:03:30;;;;;;;;;;;21.60;92.70;;;;;;5090562;28;20368;-65
2022/07/14 14:05:56;;;;;;;;;;;21.50;92.30;;;;;;5090013;28;21450;-66
2022/07/14 14:08:22;;;;;;;;;;;21.50;91.10;;;;;;5091877;28;19932;-64
2022/07/14 14:10:49;;;;;;;;;;;21.60;93.10;;;;;;5089815;28;19927;-65
2022/07/14 14:13:14;;;;;;;;;;;21.60;94.70;;;;;;5072614;28;20022;-65
2022/07/14 14:15:40;;;;;;;;;;;21.60;95.60;;;;;;5090143;28;20356;-65
2022/07/14 14:18:23;;;;;;;;;;;21.60;94.70;;;;;;5071777;28;19924;-65
2022/07/14 14:21:01;;;;;;;;;;;21.60;96.20;;;;;;5088650;28;20015;-67
2022/07/14 14:23:27;;;;;;;;;;;21.50;94.70;;;;;;5110102;28;19924;-65
2022/07/14 14:25:53;;;;;;;;;;;21.40;92.20;;;;;;5075424;28;19981;-65
2022/07/14 14:28:19;;;;;;;;;;;21.30;91.70;;;;;;5077360;28;19924;-66
2022/07/14 14:30:45;;;;;;;;;;;21.10;93.10;;;;;;5093465;28;20020;-65
2022/07/14 14:33:11;;;;;;;;;;;21.00;94.60;;;;;;5093305;28;19967;-65
2022/07/14 14:35:36;;;;;;;;;;;21.00;95.60;;;;;;5076054;28;20013;-67
2022/07/14 14:38:02;;;;;;;;;;;20.90;96.10;;;;;;5093838;28;20328;-65
2022/07/14 14:40:28;;;;;;;;;;;20.80;98.90;;;;;;5076310;28;19932;-66
2022/07/14 14:42:54;;;;;;;;;;;20.70;97.70;;;;;;5075903;28;19925;-64
2022/07/14 14:45:19;;;;;;;;;;;20.70;99.30;;;;;;5092739;28;19924;-65
2022/07/14 14:47:45;;;;;;;;;;;20.60;98.20;;;;;;5091581;28;19979;-65
2022/07/14 14:50:11;;;;;;;;;;;20.60;97.90;;;;;;5058527;28;19928;-64
2022/07/14 14:52:37;;;;;;;;;;;20.60;99.00;;;;;;5094192;28;19962;-64
2022/07/14 14:55:03;;;;;;;;;;;20.60;97.50;;;;;;5077143;28;19994;-64